createdAt,value
2023-04-01T00:00:30.594Z,4.16
2023-04-01T00:01:30.664Z,4.15
2023-04-01T00:02:30.805Z,4.15
2023-04-01T00:03:30.974Z,4.11
2023-04-01T00:04:31.841Z,4.01
2023-04-01T00:05:31.322Z,3.98
2023-04-01T00:06:31.124Z,3.91
2023-04-01T00:07:31.225Z,3.87
2023-04-01T00:08:31.345Z,3.79
2023-04-01T00:09:31.417Z,3.72
2023-04-01T00:10:31.557Z,3.78
2023-04-01T00:11:31.545Z,3.80
2023-04-01T00:12:31.602Z,3.80
2023-04-01T00:13:31.673Z,3.80
2023-04-01T00:14:31.715Z,3.82
2023-04-01T00:15:31.887Z,3.79
2023-04-01T00:16:31.958Z,3.80
2023-04-01T00:17:32.034Z,3.80
2023-04-01T00:18:32.153Z,3.81
2023-04-01T00:19:32.205Z,3.82
2023-04-01T00:20:32.272Z,3.84
2023-04-01T00:21:32.392Z,3.82
2023-04-01T00:22:32.450Z,3.82
2023-04-01T00:23:32.517Z,3.75
2023-04-01T00:24:32.621Z,3.71
2023-04-01T00:25:33.067Z,3.65
2023-04-01T00:26:32.791Z,3.61
2023-04-01T00:27:32.940Z,3.65
2023-04-01T00:28:32.998Z,3.67
2023-04-01T00:29:33.095Z,3.70
2023-04-01T00:30:33.174Z,3.71
2023-04-01T00:31:33.303Z,3.69
2023-04-01T00:32:33.367Z,3.66
2023-04-01T00:33:33.457Z,3.65
2023-04-01T00:34:33.592Z,3.63
2023-04-01T00:35:33.930Z,3.68
2023-04-01T00:36:33.797Z,3.77
2023-04-01T00:37:33.786Z,3.82
2023-04-01T00:38:33.914Z,3.77
2023-04-01T00:39:33.875Z,3.74
2023-04-01T00:40:33.926Z,3.69
2023-04-01T00:41:33.984Z,3.67
2023-04-01T00:42:34.047Z,3.66
2023-04-01T00:43:34.102Z,3.61
2023-04-01T00:44:34.172Z,3.57
2023-04-01T00:45:34.374Z,3.55
2023-04-01T00:46:34.292Z,3.51
2023-04-01T00:47:34.344Z,3.50
2023-04-01T00:48:34.424Z,3.46
2023-04-01T00:49:34.505Z,3.38
2023-04-01T00:50:34.576Z,3.37
2023-04-01T00:51:34.638Z,3.32
2023-04-01T00:52:34.767Z,3.30
2023-04-01T00:53:34.808Z,3.30
2023-04-01T00:54:34.896Z,3.24
2023-04-01T00:55:34.930Z,3.28
2023-04-01T00:56:35.023Z,3.21
2023-04-01T00:57:35.136Z,3.14
2023-04-01T00:58:35.313Z,3.13
2023-04-01T00:59:35.358Z,3.14
2023-04-01T01:00:35.465Z,3.14
2023-04-01T01:01:35.519Z,3.16
2023-04-01T01:02:35.649Z,3.14
2023-04-01T01:03:35.591Z,3.13
2023-04-01T01:04:35.655Z,3.09
2023-04-01T01:05:48.139Z,3.07
2023-04-01T01:06:36.760Z,3.04
2023-04-01T01:07:35.800Z,3.03
2023-04-01T01:08:35.836Z,3.04
2023-04-01T01:09:35.903Z,2.99
2023-04-01T01:10:35.948Z,3.01
2023-04-01T01:11:42.543Z,3.11
2023-04-01T01:12:37.050Z,3.15
2023-04-01T01:13:36.079Z,3.13
2023-04-01T01:14:36.126Z,3.11
2023-04-01T01:15:36.151Z,3.10
2023-04-01T01:16:36.257Z,3.06
2023-04-01T01:17:36.257Z,2.98
2023-04-01T01:18:36.277Z,2.99
2023-04-01T01:19:36.327Z,3.01
2023-04-01T01:20:36.368Z,3.01
2023-04-01T01:21:36.412Z,3.04
2023-04-01T01:22:36.448Z,3.00
2023-04-01T01:23:36.511Z,2.98
2023-04-01T01:24:36.541Z,2.99
2023-04-01T01:25:36.580Z,2.97
2023-04-01T01:26:36.617Z,2.94
2023-04-01T01:27:36.662Z,2.93
2023-04-01T01:28:36.802Z,2.95
2023-04-01T01:29:36.810Z,2.95
2023-04-01T01:30:36.908Z,2.91
2023-04-01T01:31:36.968Z,2.89
2023-04-01T01:32:37.203Z,2.88
2023-04-01T01:33:37.200Z,2.90
2023-04-01T01:34:37.210Z,2.96
2023-04-01T01:35:37.273Z,2.99
2023-04-01T01:36:37.323Z,2.99
2023-04-01T01:37:37.402Z,2.98
2023-04-01T01:38:37.472Z,2.93
2023-04-01T01:39:37.561Z,2.92
2023-04-01T01:40:37.641Z,2.90
2023-04-01T01:41:37.709Z,2.91
2023-04-01T01:42:37.777Z,2.91
2023-04-01T01:43:37.851Z,2.91
2023-04-01T01:44:37.935Z,2.91
2023-04-01T01:45:37.971Z,2.91
2023-04-01T01:46:38.105Z,2.93
2023-04-01T01:47:38.165Z,2.96
2023-04-01T01:48:38.189Z,3.01
2023-04-01T01:49:38.320Z,3.03
2023-04-01T01:50:38.381Z,3.02
2023-04-01T01:51:38.472Z,2.99
2023-04-01T01:52:38.565Z,2.96
2023-04-01T01:53:38.644Z,2.96
2023-04-01T01:54:38.719Z,2.97
2023-04-01T01:55:38.829Z,2.98
2023-04-01T01:56:38.840Z,3.02
2023-04-01T01:57:39.044Z,3.04
2023-04-01T01:58:39.070Z,3.08
2023-04-01T01:59:39.150Z,3.05
2023-04-01T02:00:39.225Z,2.96
2023-04-01T02:01:39.367Z,2.90
2023-04-01T02:02:39.364Z,2.95
2023-04-01T02:03:39.502Z,3.04
2023-04-01T02:04:39.589Z,3.13
2023-04-01T02:05:39.656Z,3.13
2023-04-01T02:06:39.732Z,3.10
2023-04-01T02:07:39.794Z,3.06
2023-04-01T02:08:39.931Z,3.05
2023-04-01T02:09:39.932Z,3.01
2023-04-01T02:10:40.045Z,3.02
2023-04-01T02:11:40.093Z,3.03
2023-04-01T02:12:40.168Z,3.02
2023-04-01T02:13:40.230Z,2.99
2023-04-01T02:14:40.283Z,2.97
2023-04-01T02:15:40.860Z,2.97
2023-04-01T02:16:40.397Z,2.97
2023-04-01T02:17:40.457Z,2.94
2023-04-01T02:18:40.538Z,2.96
2023-04-01T02:19:40.607Z,2.98
2023-04-01T02:20:40.663Z,2.97
2023-04-01T02:21:40.751Z,3.01
2023-04-01T02:22:40.859Z,3.06
2023-04-01T02:23:40.942Z,3.08
2023-04-01T02:24:41.044Z,3.14
2023-04-01T02:25:41.133Z,3.13
2023-04-01T02:26:41.218Z,3.11
2023-04-01T02:27:41.268Z,3.09
2023-04-01T02:28:41.286Z,3.08
2023-04-01T02:29:41.325Z,3.07
2023-04-01T02:30:41.420Z,3.07
2023-04-01T02:31:41.485Z,3.04
2023-04-01T02:32:41.473Z,2.97
2023-04-01T02:33:41.526Z,2.91
2023-04-01T02:34:41.603Z,2.88
2023-04-01T02:35:41.642Z,2.90
2023-04-01T02:36:41.675Z,2.90
2023-04-01T02:37:41.712Z,2.85
2023-04-01T02:38:41.767Z,2.82
2023-04-01T02:39:41.898Z,2.86
2023-04-01T02:40:41.967Z,2.92
2023-04-01T02:41:42.082Z,2.91
2023-04-01T02:42:42.254Z,2.89
2023-04-01T02:43:42.319Z,2.88
2023-04-01T02:44:42.408Z,2.88
2023-04-01T02:45:42.521Z,2.91
2023-04-01T02:46:42.666Z,2.94
2023-04-01T02:47:42.705Z,2.95
2023-04-01T02:48:42.825Z,3.00
2023-04-01T02:49:42.863Z,3.09
2023-04-01T02:50:43.046Z,3.11
2023-04-01T02:51:43.144Z,3.07
2023-04-01T02:52:43.220Z,3.04
2023-04-01T02:53:43.301Z,3.02
2023-04-01T02:54:43.401Z,3.02
2023-04-01T02:55:43.532Z,3.02
2023-04-01T02:56:43.636Z,3.03
2023-04-01T02:57:43.728Z,3.02
2023-04-01T02:58:43.859Z,3.01
2023-04-01T02:59:43.926Z,3.01
2023-04-01T03:00:43.988Z,2.99
2023-04-01T03:01:44.859Z,2.96
2023-04-01T03:02:44.124Z,2.93
2023-04-01T03:03:45.162Z,2.95
2023-04-01T03:04:44.121Z,2.98
2023-04-01T03:05:44.179Z,3.01
2023-04-01T03:06:44.227Z,3.04
2023-04-01T03:07:44.292Z,3.04
2023-04-01T03:08:44.339Z,3.05
2023-04-01T03:09:44.409Z,3.07
2023-04-01T03:10:44.418Z,3.05
2023-04-01T03:11:44.458Z,3.04
2023-04-01T03:12:44.529Z,3.05
2023-04-01T03:13:44.545Z,3.11
2023-04-01T03:14:44.593Z,3.14
2023-04-01T03:15:44.694Z,3.16
2023-04-01T03:16:44.715Z,3.17
2023-04-01T03:17:44.762Z,3.21
2023-04-01T03:18:44.780Z,3.27
2023-04-01T03:19:45.014Z,3.26
2023-04-01T03:20:45.800Z,3.28
2023-04-01T03:21:44.998Z,3.26
2023-04-01T03:22:45.131Z,3.27
2023-04-01T03:23:45.188Z,3.28
2023-04-01T03:24:45.294Z,3.27
2023-04-01T03:25:45.413Z,3.29
2023-04-01T03:26:45.611Z,3.31
2023-04-01T03:27:45.586Z,3.31
2023-04-01T03:28:45.631Z,3.31
2023-04-01T03:29:45.744Z,3.35
2023-04-01T03:30:45.803Z,3.32
2023-04-01T03:31:45.907Z,3.34
2023-04-01T03:32:46.897Z,3.34
2023-04-01T03:33:45.928Z,3.41
2023-04-01T03:34:46.812Z,3.38
2023-04-01T03:35:46.022Z,3.37
2023-04-01T03:36:46.201Z,3.38
2023-04-01T03:37:46.126Z,3.37
2023-04-01T03:38:46.230Z,3.36
2023-04-01T03:39:46.338Z,3.32
2023-04-01T03:40:46.495Z,3.33
2023-04-01T03:41:46.478Z,3.32
2023-04-01T03:42:46.566Z,3.31
2023-04-01T03:43:46.707Z,3.36
2023-04-01T03:44:46.752Z,3.37
2023-04-01T03:45:46.923Z,3.35
2023-04-01T03:46:46.991Z,3.33
2023-04-01T03:47:47.080Z,3.32
2023-04-01T03:48:47.081Z,3.32
2023-04-01T03:49:47.206Z,3.35
2023-04-01T03:50:47.272Z,3.38
2023-04-01T03:51:47.390Z,3.40
2023-04-01T03:52:47.464Z,3.36
2023-04-01T03:53:47.580Z,3.29
2023-04-01T03:54:47.656Z,3.23
2023-04-01T03:55:47.781Z,3.20
2023-04-01T03:56:47.871Z,3.22
2023-04-01T03:57:47.964Z,3.22
2023-04-01T03:58:48.028Z,3.21
2023-04-01T03:59:48.144Z,3.25
2023-04-01T04:00:48.222Z,3.34
2023-04-01T04:01:48.285Z,3.34
2023-04-01T04:02:48.511Z,3.36
2023-04-01T04:03:48.561Z,3.38
2023-04-01T04:04:48.640Z,3.39
2023-04-01T04:05:48.670Z,3.41
2023-04-01T04:06:48.749Z,3.40
2023-04-01T04:07:48.845Z,3.38
2023-04-01T04:08:48.942Z,3.39
2023-04-01T04:09:49.050Z,3.39
2023-04-01T04:10:49.134Z,3.38
2023-04-01T04:11:49.269Z,3.40
2023-04-01T04:12:49.372Z,3.40
2023-04-01T04:13:49.502Z,3.39
2023-04-01T04:14:50.328Z,3.40
2023-04-01T04:15:49.701Z,3.41
2023-04-01T04:16:50.301Z,3.46
2023-04-01T04:17:49.905Z,3.40
2023-04-01T04:18:49.930Z,3.36
2023-04-01T04:19:50.005Z,3.35
2023-04-01T04:20:50.088Z,3.29
2023-04-01T04:21:50.172Z,3.28
2023-04-01T04:22:50.328Z,3.27
2023-04-01T04:23:50.438Z,3.28
2023-04-01T04:24:51.322Z,3.28
2023-04-01T04:25:50.643Z,3.24
2023-04-01T04:26:50.730Z,3.24
2023-04-01T04:27:50.784Z,3.26
2023-04-01T04:28:50.854Z,3.29
2023-04-01T04:29:50.970Z,3.33
2023-04-01T04:30:51.047Z,3.37
2023-04-01T04:31:51.182Z,3.39
2023-04-01T04:32:51.248Z,3.33
2023-04-01T04:33:51.270Z,3.35
2023-04-01T04:34:51.316Z,3.40
2023-04-01T04:35:51.393Z,3.43
2023-04-01T04:36:51.470Z,3.46
2023-04-01T04:37:51.526Z,3.47
2023-04-01T04:38:51.681Z,3.48
2023-04-01T04:39:51.677Z,3.49
2023-04-01T04:40:51.743Z,3.52
2023-04-01T04:41:52.441Z,3.51
2023-04-01T04:42:51.968Z,3.51
2023-04-01T04:43:52.093Z,3.51
2023-04-01T04:44:52.166Z,3.48
2023-04-01T04:45:52.223Z,3.42
2023-04-01T04:46:52.396Z,3.36
2023-04-01T04:47:53.348Z,3.36
2023-04-01T04:48:52.498Z,3.38
2023-04-01T04:49:52.581Z,3.44
2023-04-01T04:50:52.700Z,3.48
2023-04-01T04:51:52.803Z,3.53
2023-04-01T04:52:52.876Z,3.63
2023-04-01T04:53:53.369Z,3.63
2023-04-01T04:54:53.041Z,3.67
2023-04-01T04:55:53.126Z,3.71
2023-04-01T04:56:53.383Z,3.69
2023-04-01T04:57:53.258Z,3.67
2023-04-01T04:58:53.344Z,3.75
2023-04-01T04:59:53.421Z,3.75
2023-04-01T05:00:53.516Z,3.72
2023-04-01T05:01:53.590Z,3.68
2023-04-01T05:02:53.817Z,3.70
2023-04-01T05:03:53.796Z,3.66
2023-04-01T05:04:54.320Z,3.71
2023-04-01T05:05:54.812Z,3.67
2023-04-01T05:06:53.948Z,3.68
2023-04-01T05:07:54.053Z,3.67
2023-04-01T05:08:54.208Z,3.67
2023-04-01T05:09:54.369Z,3.68
2023-04-01T05:10:54.320Z,3.68
2023-04-01T05:11:54.370Z,3.67
2023-04-01T05:12:54.456Z,3.68
2023-04-01T05:13:55.316Z,3.72
2023-04-01T05:14:54.627Z,3.73
2023-04-01T05:15:54.681Z,3.78
2023-04-01T05:16:54.873Z,3.84
2023-04-01T05:17:55.002Z,3.81
2023-04-01T05:18:54.969Z,3.84
2023-04-01T05:19:55.056Z,3.87
2023-04-01T05:20:55.156Z,3.91
2023-04-01T05:21:55.270Z,3.94
2023-04-01T05:22:55.361Z,3.94
2023-04-01T05:23:55.433Z,3.94
2023-04-01T05:24:55.527Z,3.94
2023-04-01T05:25:55.599Z,3.99
2023-04-01T05:26:56.969Z,4.04
2023-04-01T05:27:56.319Z,4.06
2023-04-01T05:28:55.896Z,4.08
2023-04-01T05:29:55.992Z,4.11
2023-04-01T05:30:56.094Z,4.13
2023-04-01T05:31:56.125Z,4.17
2023-04-01T05:32:56.249Z,4.18
2023-04-01T05:33:56.257Z,4.18
2023-04-01T05:34:56.276Z,4.20
2023-04-01T05:35:56.333Z,4.23
2023-04-01T05:36:56.351Z,4.28
2023-04-01T05:37:56.389Z,4.31
2023-04-01T05:38:56.515Z,4.36
2023-04-01T05:39:56.441Z,4.41
2023-04-01T05:40:56.477Z,4.44
2023-04-01T05:41:56.497Z,4.46
2023-04-01T05:42:56.556Z,4.52
2023-04-01T05:43:56.597Z,4.65
2023-04-01T05:44:56.628Z,4.76
2023-04-01T05:45:56.742Z,4.85
2023-04-01T05:46:56.771Z,4.86
2023-04-01T05:47:56.925Z,4.88
2023-04-01T05:48:56.968Z,4.75
2023-04-01T05:49:57.057Z,4.72
2023-04-01T05:50:57.135Z,4.73
2023-04-01T05:51:57.224Z,4.73
2023-04-01T05:52:57.321Z,4.85
2023-04-01T05:53:57.363Z,4.90
2023-04-01T05:54:57.417Z,4.93
2023-04-01T05:55:57.468Z,4.91
2023-04-01T05:56:57.588Z,4.96
2023-04-01T05:57:57.633Z,5.00
2023-04-01T05:58:57.704Z,5.04
2023-04-01T05:59:57.766Z,5.07
2023-04-01T06:01:08.768Z,5.12
2023-04-01T06:01:59.842Z,5.19
2023-04-01T06:02:57.933Z,5.20
2023-04-01T06:03:57.928Z,5.23
2023-04-01T06:04:57.985Z,5.27
2023-04-01T06:05:57.906Z,5.26
2023-04-01T06:06:57.934Z,5.23
2023-04-01T06:07:58.018Z,5.21
2023-04-01T06:08:58.093Z,5.24
2023-04-01T06:09:58.172Z,5.30
2023-04-01T06:10:58.262Z,5.37
2023-04-01T06:11:58.387Z,5.43
2023-04-01T06:12:58.405Z,5.44
2023-04-01T06:13:58.483Z,5.48
2023-04-01T06:14:58.519Z,5.60
2023-04-01T06:15:58.586Z,5.75
2023-04-01T06:16:58.590Z,5.93
2023-04-01T06:17:58.764Z,6.00
2023-04-01T06:18:58.762Z,6.03
2023-04-01T06:19:58.825Z,5.95
2023-04-01T06:20:58.913Z,5.88
2023-04-01T06:21:58.971Z,5.87
2023-04-01T06:22:59.051Z,5.91
2023-04-01T06:23:59.094Z,6.01
2023-04-01T06:24:59.819Z,6.07
2023-04-01T06:25:59.229Z,6.02
2023-04-01T06:26:59.230Z,6.00
2023-04-01T06:27:59.275Z,5.95
2023-04-01T06:28:59.320Z,5.95
2023-04-01T06:29:59.330Z,5.89
2023-04-01T06:30:59.379Z,5.96
2023-04-01T06:31:59.394Z,6.06
2023-04-01T06:32:59.445Z,6.14
2023-04-01T06:33:59.410Z,6.19
2023-04-01T06:34:59.423Z,6.25
2023-04-01T06:35:59.529Z,6.29
2023-04-01T06:36:59.502Z,6.35
2023-04-01T06:37:59.493Z,6.41
2023-04-01T06:38:59.495Z,6.42
2023-04-01T06:39:59.545Z,6.43
2023-04-01T06:40:59.537Z,6.38
2023-04-01T06:41:59.568Z,6.40
2023-04-01T06:42:59.652Z,6.49
2023-04-01T06:43:59.744Z,6.59
2023-04-01T06:44:59.754Z,6.73
2023-04-01T06:46:00.840Z,6.76
2023-04-01T06:47:00.837Z,6.78
2023-04-01T06:47:59.961Z,6.82
2023-04-01T06:48:59.965Z,6.79
2023-04-01T06:50:00.008Z,6.90
2023-04-01T06:51:00.079Z,6.88
2023-04-01T06:52:00.129Z,6.94
2023-04-01T06:53:00.166Z,6.88
2023-04-01T06:54:00.183Z,6.93
2023-04-01T06:55:00.260Z,7.06
2023-04-01T06:56:00.298Z,7.11
2023-04-01T06:57:00.350Z,7.14
2023-04-01T06:58:00.416Z,7.29
2023-04-01T06:59:00.530Z,7.41
2023-04-01T07:00:00.420Z,7.50
2023-04-01T07:01:00.467Z,7.55
2023-04-01T07:02:00.513Z,7.56
2023-04-01T07:03:00.626Z,7.67
2023-04-01T07:04:00.694Z,7.65
2023-04-01T07:05:00.816Z,7.69
2023-04-01T07:06:00.698Z,7.71
2023-04-01T07:07:00.796Z,7.74
2023-04-01T07:08:00.827Z,7.86
2023-04-01T07:09:01.791Z,7.97
2023-04-01T07:10:00.869Z,7.86
2023-04-01T07:11:00.889Z,7.89
2023-04-01T07:12:00.888Z,7.90
2023-04-01T07:13:00.896Z,7.94
2023-04-01T07:14:00.963Z,8.00
2023-04-01T07:15:00.914Z,8.08
2023-04-01T07:16:00.880Z,8.19
2023-04-01T07:17:00.958Z,8.37
2023-04-01T07:18:00.895Z,8.45
2023-04-01T07:19:00.871Z,8.45
2023-04-01T07:20:00.901Z,8.52
2023-04-01T07:21:00.866Z,8.70
2023-04-01T07:22:00.853Z,8.97
2023-04-01T07:23:00.852Z,9.12
2023-04-01T07:24:00.863Z,9.40
2023-04-01T07:25:00.855Z,9.64
2023-04-01T07:26:00.880Z,9.81
2023-04-01T07:27:00.849Z,9.85
2023-04-01T07:28:00.842Z,9.71
2023-04-01T07:29:00.840Z,9.56
2023-04-01T07:30:00.837Z,9.45
2023-04-01T07:31:00.845Z,9.35
2023-04-01T07:32:00.813Z,9.30
2023-04-01T07:33:00.814Z,9.01
2023-04-01T07:34:00.838Z,8.75
2023-04-01T07:35:00.853Z,8.80
2023-04-01T07:36:00.854Z,8.75
2023-04-01T07:37:00.785Z,8.83
2023-04-01T07:38:00.803Z,8.88
2023-04-01T07:39:00.805Z,8.91
2023-04-01T07:40:00.765Z,8.93
2023-04-01T07:41:00.765Z,8.98
2023-04-01T07:42:00.764Z,8.93
2023-04-01T07:43:00.819Z,8.88
2023-04-01T07:44:00.856Z,8.84
2023-04-01T07:45:00.891Z,9.03
2023-04-01T07:46:00.973Z,9.10
2023-04-01T07:47:00.968Z,9.32
2023-04-01T07:48:01.004Z,9.58
2023-04-01T07:49:00.967Z,9.85
2023-04-01T07:50:01.011Z,10.15
2023-04-01T07:51:00.998Z,10.33
2023-04-01T07:52:00.991Z,10.47
2023-04-01T07:53:00.975Z,10.74
2023-04-01T07:54:00.945Z,10.95
2023-04-01T07:55:00.912Z,11.09
2023-04-01T07:56:00.925Z,11.04
2023-04-01T07:57:00.958Z,10.83
2023-04-01T07:58:00.957Z,10.88
2023-04-01T07:59:01.342Z,11.08
2023-04-01T08:00:00.904Z,11.24
2023-04-01T08:01:00.868Z,11.31
2023-04-01T08:02:00.868Z,11.58
2023-04-01T08:03:00.964Z,11.84
2023-04-01T08:04:01.085Z,11.61
2023-04-01T08:05:00.947Z,11.29
2023-04-01T08:06:00.957Z,11.56
2023-04-01T08:07:00.872Z,11.27
2023-04-01T08:08:00.874Z,10.83
2023-04-01T08:09:00.846Z,10.70
2023-04-01T08:10:00.882Z,10.82
2023-04-01T08:11:00.906Z,10.84
2023-04-01T08:12:00.846Z,10.91
2023-04-01T08:13:00.885Z,11.11
2023-04-01T08:14:00.889Z,11.20
2023-04-01T08:15:00.878Z,11.41
2023-04-01T08:16:00.898Z,11.59
2023-04-01T08:17:00.805Z,11.81
2023-04-01T08:18:00.806Z,11.94
2023-04-01T08:19:00.750Z,11.83
2023-04-01T08:20:00.763Z,12.07
2023-04-01T08:21:00.724Z,11.90
2023-04-01T08:22:00.721Z,12.04
2023-04-01T08:23:00.648Z,12.19
2023-04-01T08:24:00.652Z,12.12
2023-04-01T08:25:00.572Z,12.16
2023-04-01T08:26:00.566Z,12.23
2023-04-01T08:27:00.584Z,12.19
2023-04-01T08:28:00.560Z,12.19
2023-04-01T08:29:00.614Z,12.12
2023-04-01T08:30:00.570Z,12.24
2023-04-01T08:31:00.559Z,12.10
2023-04-01T08:32:01.401Z,12.42
2023-04-01T08:33:00.599Z,12.44
2023-04-01T08:34:00.564Z,12.39
2023-04-01T08:35:00.502Z,12.47
2023-04-01T08:36:00.582Z,12.46
2023-04-01T08:37:00.503Z,12.64
2023-04-01T08:38:00.459Z,12.62
2023-04-01T08:39:00.425Z,12.66
2023-04-01T08:40:00.393Z,12.66
2023-04-01T08:41:00.310Z,12.65
2023-04-01T08:42:00.252Z,12.73
2023-04-01T08:43:00.200Z,12.71
2023-04-01T08:44:00.215Z,12.74
2023-04-01T08:45:00.082Z,12.78
2023-04-01T08:46:00.084Z,12.61
2023-04-01T08:47:00.011Z,12.52
2023-04-01T08:47:59.951Z,12.50
2023-04-01T08:48:59.855Z,12.47
2023-04-01T08:49:59.870Z,12.51
2023-04-01T08:50:59.864Z,12.57
2023-04-01T08:51:59.834Z,12.72
2023-04-01T08:52:59.809Z,12.90
2023-04-01T08:53:59.803Z,12.95
2023-04-01T08:54:59.818Z,12.98
2023-04-01T08:55:59.778Z,13.01
2023-04-01T08:56:59.816Z,13.09
2023-04-01T08:57:59.676Z,13.16
2023-04-01T08:58:59.672Z,13.06
2023-04-01T08:59:59.643Z,12.71
2023-04-01T09:00:59.623Z,12.55
2023-04-01T09:01:59.638Z,12.39
2023-04-01T09:02:59.708Z,12.03
2023-04-01T09:03:59.743Z,12.00
2023-04-01T09:04:59.681Z,11.66
2023-04-01T09:05:59.658Z,11.75
2023-04-01T09:06:59.650Z,11.99
2023-04-01T09:07:59.638Z,12.16
2023-04-01T09:08:59.604Z,12.42
2023-04-01T09:09:59.619Z,12.42
2023-04-01T09:10:59.622Z,12.23
2023-04-01T09:11:59.562Z,12.18
2023-04-01T09:12:59.477Z,12.37
2023-04-01T09:13:59.466Z,12.55
2023-04-01T09:14:59.477Z,12.74
2023-04-01T09:16:00.378Z,12.98
2023-04-01T09:16:59.396Z,13.21
2023-04-01T09:17:59.407Z,13.25
2023-04-01T09:18:59.358Z,13.20
2023-04-01T09:19:59.353Z,12.95
2023-04-01T09:20:59.307Z,13.23
2023-04-01T09:21:59.294Z,13.68
2023-04-01T09:22:59.261Z,13.97
2023-04-01T09:23:59.237Z,14.48
2023-04-01T09:24:59.370Z,14.45
2023-04-01T09:25:59.863Z,14.50
2023-04-01T09:26:59.787Z,14.56
2023-04-01T09:27:59.063Z,14.52
2023-04-01T09:28:59.050Z,14.42
2023-04-01T09:29:59.048Z,14.49
2023-04-01T09:30:59.891Z,14.13
2023-04-01T09:31:58.969Z,14.15
2023-04-01T09:32:58.982Z,14.15
2023-04-01T09:33:59.378Z,14.22
2023-04-01T09:34:58.839Z,14.13
2023-04-01T09:35:58.819Z,14.03
2023-04-01T09:37:00.395Z,14.17
2023-04-01T09:37:58.789Z,14.20
2023-04-01T09:38:59.369Z,14.10
2023-04-01T09:39:58.702Z,14.26
2023-04-01T09:40:58.636Z,14.19
2023-04-01T09:41:58.601Z,13.76
2023-04-01T09:42:58.564Z,13.45
2023-04-01T09:43:59.365Z,12.86
2023-04-01T09:44:58.613Z,12.56
2023-04-01T09:45:58.629Z,12.58
2023-04-01T09:46:59.360Z,12.64
2023-04-01T09:47:58.512Z,12.44
2023-04-01T09:48:59.361Z,12.50
2023-04-01T09:49:58.353Z,12.53
2023-04-01T09:50:58.866Z,12.55
2023-04-01T09:51:58.879Z,12.64
2023-04-01T09:52:58.333Z,12.78
2023-04-01T09:53:58.967Z,12.70
2023-04-01T09:54:58.285Z,12.71
2023-04-01T09:55:58.930Z,12.74
2023-04-01T09:56:58.290Z,12.78
2023-04-01T09:57:58.243Z,12.94
2023-04-01T09:58:58.207Z,12.92
2023-04-01T09:59:58.223Z,12.78
2023-04-01T10:00:59.880Z,12.86
2023-04-01T10:01:58.183Z,12.89
2023-04-01T10:02:58.185Z,13.11
2023-04-01T10:03:58.108Z,13.30
2023-04-01T10:04:58.116Z,13.54
2023-04-01T10:05:58.122Z,13.55
2023-04-01T10:06:58.088Z,13.64
2023-04-01T10:07:58.872Z,13.75
2023-04-01T10:08:58.024Z,13.77
2023-04-01T10:09:58.369Z,13.86
2023-04-01T10:10:58.029Z,13.86
2023-04-01T10:11:58.029Z,13.84
2023-04-01T10:12:58.001Z,13.78
2023-04-01T10:13:58.031Z,13.92
2023-04-01T10:14:58.091Z,14.13
2023-04-01T10:16:02.896Z,13.69
2023-04-01T10:16:58.884Z,13.62
2023-04-01T10:17:57.883Z,13.51
2023-04-01T10:18:58.371Z,13.45
2023-04-01T10:19:57.735Z,13.39
2023-04-01T10:20:57.644Z,13.27
2023-04-01T10:21:57.634Z,13.49
2023-04-01T10:22:57.531Z,13.66
2023-04-01T10:23:57.541Z,13.79
2023-04-01T10:24:58.359Z,13.87
2023-04-01T10:25:57.401Z,13.90
2023-04-01T10:26:57.313Z,13.93
2023-04-01T10:27:57.878Z,14.08
2023-04-01T10:28:57.229Z,14.15
2023-04-01T10:29:57.204Z,13.86
2023-04-01T10:30:57.247Z,13.79
2023-04-01T10:31:57.219Z,13.96
2023-04-01T10:32:58.897Z,14.28
2023-04-01T10:33:57.136Z,14.42
2023-04-01T10:34:57.035Z,14.35
2023-04-01T10:35:57.028Z,14.28
2023-04-01T10:36:57.873Z,14.40
2023-04-01T10:37:56.885Z,14.54
2023-04-01T10:38:56.871Z,14.71
2023-04-01T10:39:56.824Z,14.97
2023-04-01T10:40:56.832Z,15.25
2023-04-01T10:41:56.703Z,15.47
2023-04-01T10:42:56.642Z,15.65
2023-04-01T10:43:56.868Z,15.82
2023-04-01T10:44:56.611Z,15.94
2023-04-01T10:45:56.593Z,15.99
2023-04-01T10:46:57.415Z,16.05
2023-04-01T10:47:56.541Z,16.10
2023-04-01T10:48:56.468Z,15.88
2023-04-01T10:49:56.424Z,15.76
2023-04-01T10:50:56.981Z,15.76
2023-04-01T10:51:56.439Z,15.81
2023-04-01T10:52:56.426Z,16.10
2023-04-01T10:53:56.384Z,16.28
2023-04-01T10:54:56.418Z,16.38
2023-04-01T10:55:56.306Z,15.93
2023-04-01T10:56:56.297Z,16.18
2023-04-01T10:57:56.190Z,16.37
2023-04-01T10:58:56.159Z,16.38
2023-04-01T10:59:56.119Z,16.46
2023-04-01T11:00:56.225Z,16.74
2023-04-01T11:02:10.178Z,16.67
2023-04-01T11:02:57.091Z,16.68
2023-04-01T11:03:56.000Z,16.55
2023-04-01T11:04:55.856Z,16.85
2023-04-01T11:05:55.770Z,17.18
2023-04-01T11:06:55.666Z,17.05
2023-04-01T11:08:05.333Z,17.14
2023-04-01T11:08:56.549Z,16.81
2023-04-01T11:09:55.446Z,16.93
2023-04-01T11:10:55.415Z,17.15
2023-04-01T11:11:55.264Z,17.29
2023-04-01T11:12:55.184Z,17.28
2023-04-01T11:13:57.868Z,17.18
2023-04-01T11:14:55.022Z,17.26
2023-04-01T11:15:55.078Z,17.46
2023-04-01T11:16:54.821Z,17.48
2023-04-01T11:17:54.866Z,17.65
2023-04-01T11:18:54.644Z,17.74
2023-04-01T11:19:54.706Z,17.67
2023-04-01T11:20:54.476Z,17.65
2023-04-01T11:21:54.395Z,17.68
2023-04-01T11:22:54.267Z,17.62
2023-04-01T11:24:04.547Z,17.42
2023-04-01T11:24:55.369Z,17.19
2023-04-01T11:25:54.237Z,17.61
2023-04-01T11:26:54.281Z,17.78
2023-04-01T11:27:54.152Z,17.42
2023-04-01T11:28:54.147Z,17.23
2023-04-01T11:30:00.201Z,17.38
2023-04-01T11:30:54.858Z,17.72
2023-04-01T11:31:54.340Z,17.88
2023-04-01T11:32:53.708Z,17.99
2023-04-01T11:33:53.533Z,18.05
2023-04-01T11:34:53.503Z,18.13
2023-04-01T11:35:53.365Z,18.20
2023-04-01T11:36:53.243Z,18.15
2023-04-01T11:37:53.113Z,18.07
2023-04-01T11:38:53.052Z,17.76
2023-04-01T11:39:53.019Z,17.58
2023-04-01T11:40:53.026Z,17.56
2023-04-01T11:41:52.961Z,17.55
2023-04-01T11:42:52.924Z,17.64
2023-04-01T11:43:52.874Z,17.81
2023-04-01T11:44:52.819Z,17.94
2023-04-01T11:45:52.810Z,18.14
2023-04-01T11:46:52.701Z,18.25
2023-04-01T11:47:52.692Z,18.28
2023-04-01T11:48:52.552Z,18.27
2023-04-01T11:49:52.483Z,18.31
2023-04-01T11:50:52.924Z,18.24
2023-04-01T11:51:52.382Z,18.14
2023-04-01T11:52:52.315Z,18.24
2023-04-01T11:53:52.232Z,18.20
2023-04-01T11:54:52.184Z,18.34
2023-04-01T11:55:52.213Z,18.35
2023-04-01T11:56:52.150Z,18.05
2023-04-01T11:57:51.988Z,17.62
2023-04-01T11:58:51.902Z,17.36
2023-04-01T11:59:51.836Z,17.45
2023-04-01T12:00:51.787Z,17.62
2023-04-01T12:01:51.758Z,17.76
2023-04-01T12:02:51.786Z,17.74
2023-04-01T12:03:51.659Z,17.80
2023-04-01T12:04:51.563Z,17.71
2023-04-01T12:05:51.437Z,17.40
2023-04-01T12:06:51.399Z,17.45
2023-04-01T12:07:51.337Z,17.63
2023-04-01T12:08:51.286Z,17.41
2023-04-01T12:09:51.153Z,17.24
2023-04-01T12:10:51.105Z,17.16
2023-04-01T12:11:51.059Z,17.25
2023-04-01T12:13:00.738Z,17.06
2023-04-01T12:13:51.898Z,17.24
2023-04-01T12:14:50.799Z,17.36
2023-04-01T12:15:50.677Z,17.43
2023-04-01T12:16:50.620Z,17.49
2023-04-01T12:17:50.508Z,17.40
2023-04-01T12:18:50.437Z,17.18
2023-04-01T12:19:50.284Z,17.19
2023-04-01T12:20:50.901Z,17.17
2023-04-01T12:21:50.094Z,17.01
2023-04-01T12:22:50.007Z,17.11
2023-04-01T12:23:49.862Z,17.31
2023-04-01T12:24:49.857Z,17.41
2023-04-01T12:25:49.695Z,17.44
2023-04-01T12:26:49.634Z,17.52
2023-04-01T12:27:51.449Z,17.58
2023-04-01T12:28:49.557Z,17.69
2023-04-01T12:29:49.532Z,17.71
2023-04-01T12:30:49.442Z,17.87
2023-04-01T12:31:49.450Z,17.92
2023-04-01T12:32:49.419Z,18.02
2023-04-01T12:33:49.282Z,17.93
2023-04-01T12:34:49.917Z,17.90
2023-04-01T12:35:49.167Z,18.06
2023-04-01T12:36:51.107Z,18.10
2023-04-01T12:37:49.002Z,17.52
2023-04-01T12:38:48.924Z,17.50
2023-04-01T12:39:48.909Z,17.60
2023-04-01T12:40:48.802Z,17.67
2023-04-01T12:41:48.733Z,17.83
2023-04-01T12:42:48.606Z,18.16
2023-04-01T12:43:48.553Z,18.30
2023-04-01T12:44:48.485Z,18.67
2023-04-01T12:45:48.555Z,18.55
2023-04-01T12:46:48.390Z,18.35
2023-04-01T12:47:48.363Z,18.33
2023-04-01T12:48:48.247Z,18.10
2023-04-01T12:49:48.201Z,17.76
2023-04-01T12:50:48.126Z,17.45
2023-04-01T12:51:48.078Z,16.98
2023-04-01T12:52:48.030Z,16.84
2023-04-01T12:53:47.986Z,16.62
2023-04-01T12:54:47.932Z,16.56
2023-04-01T12:55:47.879Z,16.73
2023-04-01T12:56:47.869Z,17.02
2023-04-01T12:57:47.791Z,16.76
2023-04-01T12:58:47.800Z,16.33
2023-04-01T12:59:47.786Z,16.21
2023-04-01T13:00:47.821Z,15.95
2023-04-01T13:01:47.878Z,15.66
2023-04-01T13:02:47.918Z,15.44
2023-04-01T13:03:47.891Z,15.14
2023-04-01T13:04:47.890Z,14.96
2023-04-01T13:05:47.894Z,14.87
2023-04-01T13:06:47.925Z,14.73
2023-04-01T13:07:47.950Z,14.83